LFPG/CDG METAR and TAF weather

Enter ICAO airport designator
Station Type Date Time Source
LFPG METAR 2020/01/24 09:30 UTC NOAA

LFPG 240930Z 14005KT 090V170 2300 BR BKN004 M01/M02 Q1023 NOSIG


Station Type Date Time Source
LFPG Decoded METAR 2020/01/24 09:30 UTC NOAA

Paris-Aeroport Charles De Gaulle, France (LFPG) 49-01N 002-32E 109M
Jan 24, 2020 - 04:30 AM EST / 2020.01.24 0930 UTC
Wind: from the SE (140 degrees) at 6 MPH (5 KT) (direction variable):0
Visibility: 1 mile(s):0
Sky conditions: mostly cloudy
Weather: mist
Temperature: 30 F (-1 C)
Windchill: 23 F (-5 C):1
Dew Point: 28 F (-2 C)
Relative Humidity: 92%
Pressure (altimeter): 30.21 in. Hg (1023 hPa)
ob: LFPG 240930Z 14005KT 090V170 2300 BR BKN004 M01/M02 Q1023 NOSIG
cycle: 9

Station Type Date Time Source
LFPG TAF 2020/01/24 06:44 UTC NOAA

TAF LFPG 240500Z 2406/2512 06005KT 4000 BR BKN004 TX06/2512Z TNM01/2406Z PROB40
TEMPO 2406/2409 0500 FG BKN002 PROB30
TEMPO 2406/2407 FZFG VV///
BECMG 2409/2412 6000 NSW NSC
TEMPO 2410/2420 BKN008
BECMG 2420/2422 BKN006
BECMG 2500/2502 3000 BR BKN003 PROB40
TEMPO 2500/2512 0500 FG VV///

Example: see airport list